sensor_id;sensor_type;location;lat;lon;timestamp;P1;durP1;ratioP1;P2;durP2;ratioP2
65753;SDS011;52488;47.502;18.940;2023-02-04T00:00:57;3.53;;;1.40;;
65753;SDS011;52488;47.502;18.940;2023-02-04T00:02:01;15.68;;;2.83;;
65753;SDS011;52488;47.502;18.940;2023-02-04T00:03:04;10.40;;;1.92;;
65753;SDS011;52488;47.502;18.940;2023-02-04T00:04:07;9.32;;;2.30;;
65753;SDS011;52488;47.502;18.940;2023-02-04T00:05:11;6.18;;;2.22;;
65753;SDS011;52488;47.502;18.940;2023-02-04T00:06:14;10.63;;;2.12;;
65753;SDS011;52488;47.502;18.940;2023-02-04T00:07:17;11.77;;;2.05;;
65753;SDS011;52488;47.502;18.940;2023-02-04T00:08:20;6.22;;;2.10;;
65753;SDS011;52488;47.502;18.940;2023-02-04T00:09:23;8.57;;;1.92;;
65753;SDS011;52488;47.502;18.940;2023-02-04T00:10:26;11.88;;;1.95;;
65753;SDS011;52488;47.502;18.940;2023-02-04T00:11:29;8.77;;;1.73;;
65753;SDS011;52488;47.502;18.940;2023-02-04T00:12:32;10.55;;;2.15;;
65753;SDS011;52488;47.502;18.940;2023-02-04T00:13:35;7.37;;;2.05;;
65753;SDS011;52488;47.502;18.940;2023-02-04T00:14:38;10.95;;;2.00;;
65753;SDS011;52488;47.502;18.940;2023-02-04T00:15:41;9.73;;;2.40;;
65753;SDS011;52488;47.502;18.940;2023-02-04T00:16:44;8.85;;;1.80;;
65753;SDS011;52488;47.502;18.940;2023-02-04T00:17:47;5.00;;;1.52;;
65753;SDS011;52488;47.502;18.940;2023-02-04T00:18:51;10.23;;;2.08;;
65753;SDS011;52488;47.502;18.940;2023-02-04T00:19:54;9.60;;;2.17;;
65753;SDS011;52488;47.502;18.940;2023-02-04T00:20:56;9.18;;;2.30;;
65753;SDS011;52488;47.502;18.940;2023-02-04T00:21:59;10.80;;;2.45;;
65753;SDS011;52488;47.502;18.940;2023-02-04T00:23:02;7.03;;;1.90;;
65753;SDS011;52488;47.502;18.940;2023-02-04T00:24:05;16.35;;;2.42;;
65753;SDS011;52488;47.502;18.940;2023-02-04T00:25:08;4.70;;;1.70;;
65753;SDS011;52488;47.502;18.940;2023-02-04T00:26:11;11.05;;;1.90;;
65753;SDS011;52488;47.502;18.940;2023-02-04T00:27:14;4.78;;;1.48;;
65753;SDS011;52488;47.502;18.940;2023-02-04T00:28:17;10.77;;;2.10;;
65753;SDS011;52488;47.502;18.940;2023-02-04T00:29:20;8.23;;;2.00;;
65753;SDS011;52488;47.502;18.940;2023-02-04T00:30:23;5.97;;;2.47;;
65753;SDS011;52488;47.502;18.940;2023-02-04T00:31:26;6.10;;;2.03;;
65753;SDS011;52488;47.502;18.940;2023-02-04T00:32:29;13.18;;;2.08;;
65753;SDS011;52488;47.502;18.940;2023-02-04T00:33:32;9.55;;;1.77;;
65753;SDS011;52488;47.502;18.940;2023-02-04T00:34:34;7.47;;;1.77;;
65753;SDS011;52488;47.502;18.940;2023-02-04T00:35:37;9.73;;;1.67;;
65753;SDS011;52488;47.502;18.940;2023-02-04T00:36:41;8.30;;;1.98;;
65753;SDS011;52488;47.502;18.940;2023-02-04T00:37:44;10.15;;;2.03;;
65753;SDS011;52488;47.502;18.940;2023-02-04T00:38:47;8.07;;;1.60;;
65753;SDS011;52488;47.502;18.940;2023-02-04T00:39:50;5.45;;;1.30;;
65753;SDS011;52488;47.502;18.940;2023-02-04T00:40:52;7.72;;;1.80;;
65753;SDS011;52488;47.502;18.940;2023-02-04T00:41:55;8.95;;;1.80;;
65753;SDS011;52488;47.502;18.940;2023-02-04T00:42:58;5.15;;;1.50;;
65753;SDS011;52488;47.502;18.940;2023-02-04T00:44:01;8.65;;;1.55;;
65753;SDS011;52488;47.502;18.940;2023-02-04T00:45:04;7.90;;;1.90;;
65753;SDS011;52488;47.502;18.940;2023-02-04T00:46:07;8.15;;;1.67;;
65753;SDS011;52488;47.502;18.940;2023-02-04T00:47:10;7.90;;;1.92;;
65753;SDS011;52488;47.502;18.940;2023-02-04T00:48:13;4.72;;;1.50;;
65753;SDS011;52488;47.502;18.940;2023-02-04T00:49:16;9.02;;;1.95;;
65753;SDS011;52488;47.502;18.940;2023-02-04T00:50:19;4.57;;;1.50;;
65753;SDS011;52488;47.502;18.940;2023-02-04T00:51:21;7.15;;;1.62;;
65753;SDS011;52488;47.502;18.940;2023-02-04T00:52:24;8.15;;;1.98;;
65753;SDS011;52488;47.502;18.940;2023-02-04T00:53:27;6.53;;;1.67;;
65753;SDS011;52488;47.502;18.940;2023-02-04T00:54:30;5.87;;;1.70;;
65753;SDS011;52488;47.502;18.940;2023-02-04T00:55:32;4.32;;;1.90;;
65753;SDS011;52488;47.502;18.940;2023-02-04T00:56:35;11.73;;;2.12;;
65753;SDS011;52488;47.502;18.940;2023-02-04T00:57:38;10.35;;;1.50;;
65753;SDS011;52488;47.502;18.940;2023-02-04T00:58:41;6.35;;;1.90;;
65753;SDS011;52488;47.502;18.940;2023-02-04T00:59:44;6.43;;;1.50;;
65753;SDS011;52488;47.502;18.940;2023-02-04T01:00:47;8.55;;;1.67;;
65753;SDS011;52488;47.502;18.940;2023-02-04T01:01:50;4.85;;;1.80;;
65753;SDS011;52488;47.502;18.940;2023-02-04T01:02:53;8.43;;;2.03;;
65753;SDS011;52488;47.502;18.940;2023-02-04T01:03:56;6.07;;;1.50;;
65753;SDS011;52488;47.502;18.940;2023-02-04T01:04:59;4.95;;;1.20;;
65753;SDS011;52488;47.502;18.940;2023-02-04T01:06:01;6.75;;;1.58;;
65753;SDS011;52488;47.502;18.940;2023-02-04T01:07:04;9.15;;;1.60;;
65753;SDS011;52488;47.502;18.940;2023-02-04T01:08:07;7.75;;;1.60;;
65753;SDS011;52488;47.502;18.940;2023-02-04T01:09:10;7.95;;;1.83;;
65753;SDS011;52488;47.502;18.940;2023-02-04T01:10:13;8.13;;;1.50;;
65753;SDS011;52488;47.502;18.940;2023-02-04T01:11:18;4.40;;;1.52;;
65753;SDS011;52488;47.502;18.940;2023-02-04T01:12:21;8.77;;;1.48;;
65753;SDS011;52488;47.502;18.940;2023-02-04T01:13:27;5.65;;;1.62;;
65753;SDS011;52488;47.502;18.940;2023-02-04T01:14:30;7.50;;;1.90;;
65753;SDS011;52488;47.502;18.940;2023-02-04T01:15:33;4.20;;;1.40;;
65753;SDS011;52488;47.502;18.940;2023-02-04T01:16:36;6.85;;;1.40;;
65753;SDS011;52488;47.502;18.940;2023-02-04T01:17:39;5.18;;;1.40;;
65753;SDS011;52488;47.502;18.940;2023-02-04T01:18:43;5.45;;;1.60;;
65753;SDS011;52488;47.502;18.940;2023-02-04T01:19:46;8.15;;;1.40;;
65753;SDS011;52488;47.502;18.940;2023-02-04T01:20:49;12.68;;;2.15;;
65753;SDS011;52488;47.502;18.940;2023-02-04T01:21:52;7.45;;;1.48;;
65753;SDS011;52488;47.502;18.940;2023-02-04T01:22:55;6.95;;;1.77;;
65753;SDS011;52488;47.502;18.940;2023-02-04T01:23:57;7.37;;;1.80;;
65753;SDS011;52488;47.502;18.940;2023-02-04T01:25:00;2.85;;;1.00;;
65753;SDS011;52488;47.502;18.940;2023-02-04T01:26:03;8.63;;;1.80;;
65753;SDS011;52488;47.502;18.940;2023-02-04T01:27:06;8.05;;;1.50;;
65753;SDS011;52488;47.502;18.940;2023-02-04T01:28:09;3.97;;;1.15;;
65753;SDS011;52488;47.502;18.940;2023-02-04T01:29:13;9.10;;;1.40;;
65753;SDS011;52488;47.502;18.940;2023-02-04T01:30:15;8.32;;;1.50;;
65753;SDS011;52488;47.502;18.940;2023-02-04T01:31:18;4.80;;;1.50;;
65753;SDS011;52488;47.502;18.940;2023-02-04T01:32:21;9.43;;;1.95;;
65753;SDS011;52488;47.502;18.940;2023-02-04T01:33:24;7.28;;;1.33;;
65753;SDS011;52488;47.502;18.940;2023-02-04T01:34:27;2.83;;;1.50;;
65753;SDS011;52488;47.502;18.940;2023-02-04T01:35:32;4.80;;;1.60;;
65753;SDS011;52488;47.502;18.940;2023-02-04T01:36:35;7.00;;;1.42;;
65753;SDS011;52488;47.502;18.940;2023-02-04T01:37:38;6.05;;;1.77;;
65753;SDS011;52488;47.502;18.940;2023-02-04T01:38:41;2.95;;;1.05;;
65753;SDS011;52488;47.502;18.940;2023-02-04T01:39:44;7.72;;;1.98;;
65753;SDS011;52488;47.502;18.940;2023-02-04T01:40:47;6.40;;;1.50;;
65753;SDS011;52488;47.502;18.940;2023-02-04T01:41:49;5.90;;;1.35;;
65753;SDS011;52488;47.502;18.940;2023-02-04T01:42:52;6.00;;;1.30;;
65753;SDS011;52488;47.502;18.940;2023-02-04T01:43:55;6.50;;;1.75;;
65753;SDS011;52488;47.502;18.940;2023-02-04T01:44:58;6.60;;;1.90;;
65753;SDS011;52488;47.502;18.940;2023-02-04T01:46:01;6.20;;;1.87;;
65753;SDS011;52488;47.502;18.940;2023-02-04T01:47:04;7.62;;;1.67;;
65753;SDS011;52488;47.502;18.940;2023-02-04T01:48:08;6.93;;;1.30;;
65753;SDS011;52488;47.502;18.940;2023-02-04T01:49:12;4.97;;;1.30;;
65753;SDS011;52488;47.502;18.940;2023-02-04T01:50:15;5.57;;;1.52;;
65753;SDS011;52488;47.502;18.940;2023-02-04T01:51:22;7.97;;;1.33;;
65753;SDS011;52488;47.502;18.940;2023-02-04T01:52:30;9.27;;;1.73;;
65753;SDS011;52488;47.502;18.940;2023-02-04T01:53:38;10.45;;;2.00;;
65753;SDS011;52488;47.502;18.940;2023-02-04T01:54:42;8.18;;;1.60;;
65753;SDS011;52488;47.502;18.940;2023-02-04T01:55:44;7.40;;;1.20;;
65753;SDS011;52488;47.502;18.940;2023-02-04T01:56:48;6.75;;;1.75;;
65753;SDS011;52488;47.502;18.940;2023-02-04T01:57:53;7.37;;;1.58;;
65753;SDS011;52488;47.502;18.940;2023-02-04T01:58:57;4.65;;;1.30;;
65753;SDS011;52488;47.502;18.940;2023-02-04T02:00:00;5.80;;;1.30;;
65753;SDS011;52488;47.502;18.940;2023-02-04T02:01:05;7.00;;;1.40;;
65753;SDS011;52488;47.502;18.940;2023-02-04T02:03:49;2.35;;;1.05;;
65753;SDS011;52488;47.502;18.940;2023-02-04T02:04:52;5.70;;;1.15;;
65753;SDS011;52488;47.502;18.940;2023-02-04T02:05:55;6.07;;;1.70;;
65753;SDS011;52488;47.502;18.940;2023-02-04T02:06:59;6.37;;;1.62;;
65753;SDS011;52488;47.502;18.940;2023-02-04T02:08:04;3.85;;;1.23;;
65753;SDS011;52488;47.502;18.940;2023-02-04T02:09:09;6.43;;;1.87;;
65753;SDS011;52488;47.502;18.940;2023-02-04T02:10:11;5.62;;;1.25;;
65753;SDS011;52488;47.502;18.940;2023-02-04T02:11:15;4.57;;;1.30;;
65753;SDS011;52488;47.502;18.940;2023-02-04T02:12:18;4.47;;;1.10;;
65753;SDS011;52488;47.502;18.940;2023-02-04T02:13:21;4.53;;;0.95;;
65753;SDS011;52488;47.502;18.940;2023-02-04T02:14:24;6.22;;;1.60;;
65753;SDS011;52488;47.502;18.940;2023-02-04T02:15:27;2.72;;;1.10;;
65753;SDS011;52488;47.502;18.940;2023-02-04T02:16:30;8.68;;;1.73;;
65753;SDS011;52488;47.502;18.940;2023-02-04T02:17:33;2.70;;;1.10;;
65753;SDS011;52488;47.502;18.940;2023-02-04T02:18:37;5.37;;;1.15;;
65753;SDS011;52488;47.502;18.940;2023-02-04T02:19:40;7.45;;;1.40;;
65753;SDS011;52488;47.502;18.940;2023-02-04T02:20:44;7.80;;;1.17;;
65753;SDS011;52488;47.502;18.940;2023-02-04T02:21:49;7.07;;;1.50;;
65753;SDS011;52488;47.502;18.940;2023-02-04T02:24:30;7.12;;;1.98;;
65753;SDS011;52488;47.502;18.940;2023-02-04T02:25:35;9.68;;;1.52;;
65753;SDS011;52488;47.502;18.940;2023-02-04T02:26:38;3.35;;;1.25;;
65753;SDS011;52488;47.502;18.940;2023-02-04T02:27:41;4.05;;;1.27;;
65753;SDS011;52488;47.502;18.940;2023-02-04T02:28:45;5.78;;;1.48;;
65753;SDS011;52488;47.502;18.940;2023-02-04T02:29:49;4.72;;;1.00;;
65753;SDS011;52488;47.502;18.940;2023-02-04T02:30:52;6.55;;;1.23;;
65753;SDS011;52488;47.502;18.940;2023-02-04T02:31:56;7.32;;;1.35;;
65753;SDS011;52488;47.502;18.940;2023-02-04T02:32:59;3.83;;;1.05;;
65753;SDS011;52488;47.502;18.940;2023-02-04T02:34:03;5.37;;;1.70;;
65753;SDS011;52488;47.502;18.940;2023-02-04T02:35:06;5.50;;;1.35;;
65753;SDS011;52488;47.502;18.940;2023-02-04T02:36:09;3.62;;;1.10;;
65753;SDS011;52488;47.502;18.940;2023-02-04T02:37:12;6.30;;;1.55;;
65753;SDS011;52488;47.502;18.940;2023-02-04T02:38:16;8.25;;;1.30;;
65753;SDS011;52488;47.502;18.940;2023-02-04T02:39:20;4.35;;;0.95;;
65753;SDS011;52488;47.502;18.940;2023-02-04T02:40:24;4.55;;;0.90;;
65753;SDS011;52488;47.502;18.940;2023-02-04T02:41:27;3.53;;;1.00;;
65753;SDS011;52488;47.502;18.940;2023-02-04T02:42:30;2.35;;;0.82;;
65753;SDS011;52488;47.502;18.940;2023-02-04T02:43:33;6.00;;;1.10;;
65753;SDS011;52488;47.502;18.940;2023-02-04T02:44:37;4.05;;;1.30;;
65753;SDS011;52488;47.502;18.940;2023-02-04T02:45:40;7.15;;;1.25;;
65753;SDS011;52488;47.502;18.940;2023-02-04T02:46:43;2.33;;;0.77;;
65753;SDS011;52488;47.502;18.940;2023-02-04T02:47:46;6.50;;;1.52;;
65753;SDS011;52488;47.502;18.940;2023-02-04T02:48:49;3.65;;;0.90;;
65753;SDS011;52488;47.502;18.940;2023-02-04T02:49:52;4.53;;;1.52;;
65753;SDS011;52488;47.502;18.940;2023-02-04T02:50:56;4.12;;;1.35;;
65753;SDS011;52488;47.502;18.940;2023-02-04T02:51:59;7.18;;;1.12;;
65753;SDS011;52488;47.502;18.940;2023-02-04T02:53:02;4.90;;;0.98;;
65753;SDS011;52488;47.502;18.940;2023-02-04T02:54:20;4.35;;;0.98;;
65753;SDS011;52488;47.502;18.940;2023-02-04T02:55:26;3.80;;;1.10;;
65753;SDS011;52488;47.502;18.940;2023-02-04T02:56:30;7.70;;;1.40;;
65753;SDS011;52488;47.502;18.940;2023-02-04T02:57:33;7.82;;;1.40;;
65753;SDS011;52488;47.502;18.940;2023-02-04T02:58:36;6.45;;;1.00;;
65753;SDS011;52488;47.502;18.940;2023-02-04T02:59:39;4.68;;;0.90;;
65753;SDS011;52488;47.502;18.940;2023-02-04T03:00:42;3.17;;;1.20;;
65753;SDS011;52488;47.502;18.940;2023-02-04T03:01:46;7.28;;;1.30;;
65753;SDS011;52488;47.502;18.940;2023-02-04T03:02:58;4.35;;;1.10;;
65753;SDS011;52488;47.502;18.940;2023-02-04T03:04:03;4.22;;;1.20;;
65753;SDS011;52488;47.502;18.940;2023-02-04T03:05:06;5.07;;;1.30;;
65753;SDS011;52488;47.502;18.940;2023-02-04T03:06:11;1.58;;;0.77;;
65753;SDS011;52488;47.502;18.940;2023-02-04T03:07:18;6.62;;;1.10;;
65753;SDS011;52488;47.502;18.940;2023-02-04T03:08:22;3.65;;;1.25;;
65753;SDS011;52488;47.502;18.940;2023-02-04T03:09:26;5.05;;;1.27;;
65753;SDS011;52488;47.502;18.940;2023-02-04T03:10:30;1.75;;;0.80;;
65753;SDS011;52488;47.502;18.940;2023-02-04T03:11:33;4.03;;;1.10;;
65753;SDS011;52488;47.502;18.940;2023-02-04T03:12:36;5.37;;;1.30;;
65753;SDS011;52488;47.502;18.940;2023-02-04T03:13:40;2.70;;;1.15;;
65753;SDS011;52488;47.502;18.940;2023-02-04T03:14:43;3.90;;;0.95;;
65753;SDS011;52488;47.502;18.940;2023-02-04T03:15:46;4.37;;;1.17;;
65753;SDS011;52488;47.502;18.940;2023-02-04T03:16:51;6.32;;;1.10;;
65753;SDS011;52488;47.502;18.940;2023-02-04T03:17:56;6.32;;;1.23;;
65753;SDS011;52488;47.502;18.940;2023-02-04T03:19:01;4.65;;;0.90;;
65753;SDS011;52488;47.502;18.940;2023-02-04T03:20:07;2.15;;;0.93;;
65753;SDS011;52488;47.502;18.940;2023-02-04T03:21:10;6.55;;;1.00;;
65753;SDS011;52488;47.502;18.940;2023-02-04T03:22:13;5.55;;;1.12;;
65753;SDS011;52488;47.502;18.940;2023-02-04T03:23:17;3.53;;;1.08;;
65753;SDS011;52488;47.502;18.940;2023-02-04T03:24:21;6.97;;;1.10;;
65753;SDS011;52488;47.502;18.940;2023-02-04T03:25:24;5.80;;;1.20;;
65753;SDS011;52488;47.502;18.940;2023-02-04T03:26:29;2.67;;;0.75;;
65753;SDS011;52488;47.502;18.940;2023-02-04T03:27:32;5.55;;;0.93;;
65753;SDS011;52488;47.502;18.940;2023-02-04T03:28:39;5.10;;;1.40;;
65753;SDS011;52488;47.502;18.940;2023-02-04T03:29:43;7.62;;;1.55;;
65753;SDS011;52488;47.502;18.940;2023-02-04T03:30:46;7.12;;;1.17;;
65753;SDS011;52488;47.502;18.940;2023-02-04T03:31:57;5.12;;;1.10;;
65753;SDS011;52488;47.502;18.940;2023-02-04T03:33:01;2.25;;;0.80;;
65753;SDS011;52488;47.502;18.940;2023-02-04T03:34:04;4.47;;;1.10;;
65753;SDS011;52488;47.502;18.940;2023-02-04T03:35:07;2.70;;;0.82;;
65753;SDS011;52488;47.502;18.940;2023-02-04T03:36:10;3.75;;;1.10;;
65753;SDS011;52488;47.502;18.940;2023-02-04T03:37:13;3.37;;;1.05;;
65753;SDS011;52488;47.502;18.940;2023-02-04T03:38:16;9.38;;;1.70;;
65753;SDS011;52488;47.502;18.940;2023-02-04T03:39:21;5.50;;;1.02;;
65753;SDS011;52488;47.502;18.940;2023-02-04T03:40:24;6.43;;;1.25;;
65753;SDS011;52488;47.502;18.940;2023-02-04T03:41:27;4.82;;;1.12;;
65753;SDS011;52488;47.502;18.940;2023-02-04T03:42:30;5.28;;;1.55;;
65753;SDS011;52488;47.502;18.940;2023-02-04T03:43:33;5.75;;;1.17;;
65753;SDS011;52488;47.502;18.940;2023-02-04T03:44:36;5.68;;;0.90;;
65753;SDS011;52488;47.502;18.940;2023-02-04T03:45:39;5.82;;;0.95;;
65753;SDS011;52488;47.502;18.940;2023-02-04T03:46:47;3.22;;;0.93;;
65753;SDS011;52488;47.502;18.940;2023-02-04T03:47:49;4.18;;;1.00;;
65753;SDS011;52488;47.502;18.940;2023-02-04T03:48:52;5.85;;;0.90;;
65753;SDS011;52488;47.502;18.940;2023-02-04T03:49:57;3.25;;;0.88;;
65753;SDS011;52488;47.502;18.940;2023-02-04T03:51:00;4.03;;;1.00;;
65753;SDS011;52488;47.502;18.940;2023-02-04T03:52:03;10.35;;;0.90;;
65753;SDS011;52488;47.502;18.940;2023-02-04T03:53:06;5.87;;;1.15;;
65753;SDS011;52488;47.502;18.940;2023-02-04T03:54:08;7.65;;;1.62;;
65753;SDS011;52488;47.502;18.940;2023-02-04T03:55:11;3.87;;;1.00;;
65753;SDS011;52488;47.502;18.940;2023-02-04T03:56:14;5.20;;;0.93;;
65753;SDS011;52488;47.502;18.940;2023-02-04T03:57:17;2.58;;;0.80;;
65753;SDS011;52488;47.502;18.940;2023-02-04T03:58:20;5.20;;;1.12;;
65753;SDS011;52488;47.502;18.940;2023-02-04T03:59:24;6.37;;;1.67;;
65753;SDS011;52488;47.502;18.940;2023-02-04T04:00:26;5.80;;;0.98;;
65753;SDS011;52488;47.502;18.940;2023-02-04T04:01:30;6.65;;;1.00;;
65753;SDS011;52488;47.502;18.940;2023-02-04T04:02:33;4.87;;;1.20;;
65753;SDS011;52488;47.502;18.940;2023-02-04T04:03:36;5.18;;;1.50;;
65753;SDS011;52488;47.502;18.940;2023-02-04T04:04:38;7.57;;;1.25;;
65753;SDS011;52488;47.502;18.940;2023-02-04T04:05:41;9.02;;;1.15;;
65753;SDS011;52488;47.502;18.940;2023-02-04T04:06:44;6.80;;;0.90;;
65753;SDS011;52488;47.502;18.940;2023-02-04T04:07:47;4.03;;;0.82;;
65753;SDS011;52488;47.502;18.940;2023-02-04T04:08:50;3.58;;;0.93;;
65753;SDS011;52488;47.502;18.940;2023-02-04T04:09:53;4.12;;;0.90;;
65753;SDS011;52488;47.502;18.940;2023-02-04T04:10:56;5.40;;;1.05;;
65753;SDS011;52488;47.502;18.940;2023-02-04T04:11:59;3.50;;;0.80;;
65753;SDS011;52488;47.502;18.940;2023-02-04T04:13:02;5.80;;;1.10;;
65753;SDS011;52488;47.502;18.940;2023-02-04T04:14:05;3.45;;;0.90;;
65753;SDS011;52488;47.502;18.940;2023-02-04T04:15:07;4.25;;;0.80;;
65753;SDS011;52488;47.502;18.940;2023-02-04T04:16:11;7.03;;;1.10;;
65753;SDS011;52488;47.502;18.940;2023-02-04T04:17:14;1.45;;;0.90;;
65753;SDS011;52488;47.502;18.940;2023-02-04T04:18:17;5.60;;;1.10;;
65753;SDS011;52488;47.502;18.940;2023-02-04T04:19:19;5.65;;;1.10;;
65753;SDS011;52488;47.502;18.940;2023-02-04T04:20:22;5.20;;;0.90;;
65753;SDS011;52488;47.502;18.940;2023-02-04T04:21:30;3.83;;;0.82;;
65753;SDS011;52488;47.502;18.940;2023-02-04T04:22:33;3.95;;;0.95;;
65753;SDS011;52488;47.502;18.940;2023-02-04T04:23:36;3.40;;;0.70;;
65753;SDS011;52488;47.502;18.940;2023-02-04T04:24:39;6.22;;;1.20;;
65753;SDS011;52488;47.502;18.940;2023-02-04T04:25:41;8.48;;;1.02;;
65753;SDS011;52488;47.502;18.940;2023-02-04T04:26:44;3.03;;;1.00;;
65753;SDS011;52488;47.502;18.940;2023-02-04T04:27:47;3.80;;;0.95;;
65753;SDS011;52488;47.502;18.940;2023-02-04T04:28:50;6.53;;;1.17;;
65753;SDS011;52488;47.502;18.940;2023-02-04T04:29:53;4.07;;;0.88;;
65753;SDS011;52488;47.502;18.940;2023-02-04T04:30:56;8.77;;;1.40;;
65753;SDS011;52488;47.502;18.940;2023-02-04T04:31:59;2.92;;;1.10;;
65753;SDS011;52488;47.502;18.940;2023-02-04T04:33:02;6.28;;;1.33;;
65753;SDS011;52488;47.502;18.940;2023-02-04T04:34:05;4.70;;;1.83;;
65753;SDS011;52488;47.502;18.940;2023-02-04T04:35:08;4.57;;;0.98;;
65753;SDS011;52488;47.502;18.940;2023-02-04T04:36:11;2.75;;;0.50;;
65753;SDS011;52488;47.502;18.940;2023-02-04T04:37:14;8.10;;;1.08;;
65753;SDS011;52488;47.502;18.940;2023-02-04T04:38:17;2.65;;;1.02;;
65753;SDS011;52488;47.502;18.940;2023-02-04T04:39:20;7.12;;;1.25;;
65753;SDS011;52488;47.502;18.940;2023-02-04T04:40:23;2.83;;;0.88;;
65753;SDS011;52488;47.502;18.940;2023-02-04T04:41:26;2.70;;;0.88;;
65753;SDS011;52488;47.502;18.940;2023-02-04T04:42:28;3.80;;;0.98;;
65753;SDS011;52488;47.502;18.940;2023-02-04T04:43:31;5.43;;;0.95;;
65753;SDS011;52488;47.502;18.940;2023-02-04T04:44:34;7.80;;;1.17;;
65753;SDS011;52488;47.502;18.940;2023-02-04T04:45:37;3.03;;;0.90;;
65753;SDS011;52488;47.502;18.940;2023-02-04T04:46:40;7.47;;;1.12;;
65753;SDS011;52488;47.502;18.940;2023-02-04T04:47:43;7.03;;;1.12;;
65753;SDS011;52488;47.502;18.940;2023-02-04T04:48:46;7.35;;;1.02;;
65753;SDS011;52488;47.502;18.940;2023-02-04T04:49:49;3.35;;;1.02;;
65753;SDS011;52488;47.502;18.940;2023-02-04T04:50:52;2.87;;;0.75;;
65753;SDS011;52488;47.502;18.940;2023-02-04T04:51:55;1.92;;;0.65;;
65753;SDS011;52488;47.502;18.940;2023-02-04T04:52:58;4.45;;;1.10;;
65753;SDS011;52488;47.502;18.940;2023-02-04T04:54:00;4.35;;;1.37;;
65753;SDS011;52488;47.502;18.940;2023-02-04T04:55:03;3.00;;;0.82;;
65753;SDS011;52488;47.502;18.940;2023-02-04T04:56:07;6.75;;;1.35;;
65753;SDS011;52488;47.502;18.940;2023-02-04T04:57:10;4.00;;;1.05;;
65753;SDS011;52488;47.502;18.940;2023-02-04T04:58:13;1.87;;;0.62;;
65753;SDS011;52488;47.502;18.940;2023-02-04T04:59:16;1.87;;;0.77;;
65753;SDS011;52488;47.502;18.940;2023-02-04T05:00:19;2.35;;;0.95;;
65753;SDS011;52488;47.502;18.940;2023-02-04T05:01:22;4.15;;;0.73;;
65753;SDS011;52488;47.502;18.940;2023-02-04T05:02:25;7.50;;;0.73;;
65753;SDS011;52488;47.502;18.940;2023-02-04T05:03:28;2.75;;;0.80;;
65753;SDS011;52488;47.502;18.940;2023-02-04T05:04:31;5.90;;;0.80;;
65753;SDS011;52488;47.502;18.940;2023-02-04T05:05:34;5.62;;;0.90;;
65753;SDS011;52488;47.502;18.940;2023-02-04T05:06:41;2.05;;;0.60;;
65753;SDS011;52488;47.502;18.940;2023-02-04T05:07:44;3.92;;;0.82;;
65753;SDS011;52488;47.502;18.940;2023-02-04T05:08:47;2.33;;;0.60;;
65753;SDS011;52488;47.502;18.940;2023-02-04T05:09:50;3.28;;;0.90;;
65753;SDS011;52488;47.502;18.940;2023-02-04T05:10:53;3.58;;;1.02;;
65753;SDS011;52488;47.502;18.940;2023-02-04T05:11:56;5.70;;;0.65;;
65753;SDS011;52488;47.502;18.940;2023-02-04T05:12:59;1.60;;;0.62;;
65753;SDS011;52488;47.502;18.940;2023-02-04T05:14:02;3.62;;;0.90;;
65753;SDS011;52488;47.502;18.940;2023-02-04T05:15:05;2.92;;;0.80;;
65753;SDS011;52488;47.502;18.940;2023-02-04T05:16:07;4.37;;;0.75;;
65753;SDS011;52488;47.502;18.940;2023-02-04T05:17:13;2.95;;;0.70;;
65753;SDS011;52488;47.502;18.940;2023-02-04T05:18:16;2.78;;;0.73;;
65753;SDS011;52488;47.502;18.940;2023-02-04T05:19:19;4.47;;;0.70;;
65753;SDS011;52488;47.502;18.940;2023-02-04T05:20:21;1.23;;;0.60;;
65753;SDS011;52488;47.502;18.940;2023-02-04T05:21:24;3.10;;;1.00;;
65753;SDS011;52488;47.502;18.940;2023-02-04T05:22:27;1.40;;;0.57;;
65753;SDS011;52488;47.502;18.940;2023-02-04T05:23:30;3.65;;;0.68;;
65753;SDS011;52488;47.502;18.940;2023-02-04T05:24:33;3.90;;;1.12;;
65753;SDS011;52488;47.502;18.940;2023-02-04T05:25:36;4.80;;;1.10;;
65753;SDS011;52488;47.502;18.940;2023-02-04T05:26:39;3.60;;;0.90;;
65753;SDS011;52488;47.502;18.940;2023-02-04T05:27:42;4.65;;;1.00;;
65753;SDS011;52488;47.502;18.940;2023-02-04T05:28:45;4.20;;;0.90;;
65753;SDS011;52488;47.502;18.940;2023-02-04T05:29:48;1.37;;;0.70;;
65753;SDS011;52488;47.502;18.940;2023-02-04T05:30:51;2.10;;;0.80;;
65753;SDS011;52488;47.502;18.940;2023-02-04T05:31:54;4.03;;;0.90;;
65753;SDS011;52488;47.502;18.940;2023-02-04T05:32:57;3.65;;;0.85;;
65753;SDS011;52488;47.502;18.940;2023-02-04T05:34:00;3.53;;;1.15;;
65753;SDS011;52488;47.502;18.940;2023-02-04T05:35:03;2.87;;;0.90;;
65753;SDS011;52488;47.502;18.940;2023-02-04T05:36:07;3.15;;;1.10;;
65753;SDS011;52488;47.502;18.940;2023-02-04T05:37:09;0.75;;;0.70;;
65753;SDS011;52488;47.502;18.940;2023-02-04T05:38:12;4.78;;;1.10;;
65753;SDS011;52488;47.502;18.940;2023-02-04T05:39:15;5.82;;;1.08;;
65753;SDS011;52488;47.502;18.940;2023-02-04T05:40:18;2.95;;;0.68;;
65753;SDS011;52488;47.502;18.940;2023-02-04T05:41:21;2.42;;;0.80;;
65753;SDS011;52488;47.502;18.940;2023-02-04T05:42:25;2.47;;;0.77;;
65753;SDS011;52488;47.502;18.940;2023-02-04T05:43:27;4.75;;;0.65;;
65753;SDS011;52488;47.502;18.940;2023-02-04T05:44:30;2.42;;;0.68;;
65753;SDS011;52488;47.502;18.940;2023-02-04T05:45:33;3.08;;;0.70;;
65753;SDS011;52488;47.502;18.940;2023-02-04T05:46:36;0.40;;;0.40;;
65753;SDS011;52488;47.502;18.940;2023-02-04T05:47:40;1.80;;;0.82;;
65753;SDS011;52488;47.502;18.940;2023-02-04T05:48:43;1.45;;;0.90;;
65753;SDS011;52488;47.502;18.940;2023-02-04T05:49:47;0.52;;;0.52;;
65753;SDS011;52488;47.502;18.940;2023-02-04T05:50:49;3.22;;;0.40;;
65753;SDS011;52488;47.502;18.940;2023-02-04T05:51:52;6.07;;;0.40;;
65753;SDS011;52488;47.502;18.940;2023-02-04T05:52:55;2.72;;;0.47;;
65753;SDS011;52488;47.502;18.940;2023-02-04T05:53:57;1.05;;;0.50;;
65753;SDS011;52488;47.502;18.940;2023-02-04T05:55:01;2.10;;;0.50;;
65753;SDS011;52488;47.502;18.940;2023-02-04T05:56:04;3.25;;;0.62;;
65753;SDS011;52488;47.502;18.940;2023-02-04T05:57:07;1.20;;;0.68;;
65753;SDS011;52488;47.502;18.940;2023-02-04T05:58:10;2.58;;;0.52;;
65753;SDS011;52488;47.502;18.940;2023-02-04T05:59:13;1.52;;;0.70;;
65753;SDS011;52488;47.502;18.940;2023-02-04T06:00:16;1.92;;;0.68;;
65753;SDS011;52488;47.502;18.940;2023-02-04T06:01:19;2.28;;;0.50;;
65753;SDS011;52488;47.502;18.940;2023-02-04T06:02:22;2.20;;;0.57;;
65753;SDS011;52488;47.502;18.940;2023-02-04T06:03:25;2.75;;;0.70;;
65753;SDS011;52488;47.502;18.940;2023-02-04T06:04:28;2.92;;;0.60;;
65753;SDS011;52488;47.502;18.940;2023-02-04T06:05:31;0.68;;;0.47;;
65753;SDS011;52488;47.502;18.940;2023-02-04T06:06:34;3.83;;;0.68;;
65753;SDS011;52488;47.502;18.940;2023-02-04T06:07:37;1.62;;;0.85;;
65753;SDS011;52488;47.502;18.940;2023-02-04T06:08:40;0.70;;;0.70;;
65753;SDS011;52488;47.502;18.940;2023-02-04T06:09:43;6.28;;;1.17;;
65753;SDS011;52488;47.502;18.940;2023-02-04T06:10:46;2.28;;;0.95;;
65753;SDS011;52488;47.502;18.940;2023-02-04T06:11:48;0.50;;;0.50;;
65753;SDS011;52488;47.502;18.940;2023-02-04T06:12:52;0.47;;;0.47;;
65753;SDS011;52488;47.502;18.940;2023-02-04T06:13:55;0.75;;;0.45;;
65753;SDS011;52488;47.502;18.940;2023-02-04T06:14:59;3.33;;;0.80;;
65753;SDS011;52488;47.502;18.940;2023-02-04T06:16:01;1.48;;;0.60;;
65753;SDS011;52488;47.502;18.940;2023-02-04T06:17:04;1.02;;;0.30;;
65753;SDS011;52488;47.502;18.940;2023-02-04T06:18:07;1.42;;;0.82;;
65753;SDS011;52488;47.502;18.940;2023-02-04T06:19:10;2.28;;;0.70;;